Weather search by city/station or by Location Indicator (LI)

Please do one of the following:
a) Search the weather station by station, city or country name and click Search button
b) Enter the four-character Location Indicator (i.e. EFHK = Helsinki) and click Submit button

a) Search the station:   

b) Location Indicator:  

The ICAO Location Indicator code is explained here.

METAR = EFHK 241250Z 06008KT 9999 BKN004 02/01 Q1005 BECMG 4000 RASN

STATIONEFHK
NAMEHelsinki/Vantaa Arpt, UU, FI
OBSERVED24.02.2024 14:50 (24.02.2024 12:50 UTC), 13 min ago
TEMPERATURE2.0°C ( 36°F)
WINDCHILL-1.9 °C (29 °F)
WINDENE at 4.1 m/s (14.76 km/h)
HUMIDITY93%
PRESSURE1005.1 hPa
METAREFHK 241250Z 06008KT 9999 BKN004 02/01 Q1005 BECMG 4000 RASN
LOCATIONMap

Click here to select stations based on continents and countries.